sensor_id;sensor_type;location;lat;lon;timestamp;pressure;altitude;pressure_sealevel;temperature;humidity
26657;BME280;14279;50.010;8.260;2023-01-30T00:05:11;101108.69;;;2.13;68.43
26657;BME280;14279;50.010;8.260;2023-01-30T00:07:36;101107.84;;;2.27;68.08
26657;BME280;14279;50.010;8.260;2023-01-30T00:10:02;101100.13;;;2.22;68.14
26657;BME280;14279;50.010;8.260;2023-01-30T00:12:27;101083.88;;;2.15;68.96
26657;BME280;14279;50.010;8.260;2023-01-30T00:14:52;101103.56;;;2.16;68.70
26657;BME280;14279;50.010;8.260;2023-01-30T00:17:18;101096.69;;;2.03;70.05
26657;BME280;14279;50.010;8.260;2023-01-30T00:19:43;101071.84;;;2.09;69.94
26657;BME280;14279;50.010;8.260;2023-01-30T00:22:08;101085.56;;;2.15;69.85
26657;BME280;14279;50.010;8.260;2023-01-30T00:24:33;101068.44;;;2.07;69.88
26657;BME280;14279;50.010;8.260;2023-01-30T00:26:59;101065.84;;;2.00;70.95
26657;BME280;14279;50.010;8.260;2023-01-30T00:29:24;101056.44;;;2.06;71.33
26657;BME280;14279;50.010;8.260;2023-01-30T00:31:49;101035.06;;;2.26;70.63
26657;BME280;14279;50.010;8.260;2023-01-30T00:34:17;101017.94;;;2.11;70.97
26657;BME280;14279;50.010;8.260;2023-01-30T00:40:27;100997.38;;;1.85;72.72
26657;BME280;14279;50.010;8.260;2023-01-30T00:42:53;101018.78;;;1.85;73.46
26657;BME280;14279;50.010;8.260;2023-01-30T00:45:49;101029.91;;;2.06;71.93
26657;BME280;14279;50.010;8.260;2023-01-30T00:48:35;101030.75;;;1.99;72.43
26657;BME280;14279;50.010;8.260;2023-01-30T00:51:03;101042.75;;;2.09;71.84
26657;BME280;14279;50.010;8.260;2023-01-30T00:53:32;101036.78;;;2.27;70.96
26657;BME280;14279;50.010;8.260;2023-01-30T00:55:57;101031.63;;;2.13;72.34
26657;BME280;14279;50.010;8.260;2023-01-30T00:58:26;101019.66;;;1.98;72.49
26657;BME280;14279;50.010;8.260;2023-01-30T01:01:20;101023.91;;;2.27;71.26
26657;BME280;14279;50.010;8.260;2023-01-30T01:03:46;101002.50;;;2.22;71.65
26657;BME280;14279;50.010;8.260;2023-01-30T01:06:17;100999.09;;;2.01;72.63
26657;BME280;14279;50.010;8.260;2023-01-30T01:08:42;101001.69;;;1.98;77.00
26657;BME280;14279;50.010;8.260;2023-01-30T01:11:08;100995.66;;;1.87;74.33
26657;BME280;14279;50.010;8.260;2023-01-30T01:13:33;101005.97;;;1.99;74.00
26657;BME280;14279;50.010;8.260;2023-01-30T01:15:59;101006.78;;;2.20;73.53
26657;BME280;14279;50.010;8.260;2023-01-30T01:18:24;100990.53;;;2.21;72.97
26657;BME280;14279;50.010;8.260;2023-01-30T01:20:49;100996.53;;;2.20;73.04
26657;BME280;14279;50.010;8.260;2023-01-30T01:23:15;100990.50;;;2.30;72.02
26657;BME280;14279;50.010;8.260;2023-01-30T01:25:42;100981.09;;;2.34;71.95
26657;BME280;14279;50.010;8.260;2023-01-30T01:28:08;100982.81;;;2.29;71.92
26657;BME280;14279;50.010;8.260;2023-01-30T01:30:33;100988.75;;;2.46;71.37
26657;BME280;14279;50.010;8.260;2023-01-30T01:32:58;100999.94;;;2.33;71.70
26657;BME280;14279;50.010;8.260;2023-01-30T01:35:24;100995.56;;;2.55;71.06
26657;BME280;14279;50.010;8.260;2023-01-30T01:37:55;100979.38;;;2.36;71.52
26657;BME280;14279;50.010;8.260;2023-01-30T01:40:21;100978.47;;;2.52;71.13
26657;BME280;14279;50.010;8.260;2023-01-30T01:43:19;100980.19;;;2.43;72.04
26657;BME280;14279;50.010;8.260;2023-01-30T01:45:47;100987.91;;;2.39;71.48
26657;BME280;14279;50.010;8.260;2023-01-30T01:48:26;100976.72;;;2.65;70.76
26657;BME280;14279;50.010;8.260;2023-01-30T01:54:08;100951.88;;;2.63;71.33
26657;BME280;14279;50.010;8.260;2023-01-30T01:56:38;100951.06;;;2.44;71.37
26657;BME280;14279;50.010;8.260;2023-01-30T01:59:25;100955.41;;;2.31;72.69
26657;BME280;14279;50.010;8.260;2023-01-30T02:01:55;100956.25;;;2.27;72.63
26657;BME280;14279;50.010;8.260;2023-01-30T02:04:23;100953.63;;;2.48;71.68
26657;BME280;14279;50.010;8.260;2023-01-30T02:07:07;100951.94;;;2.39;72.44
26657;BME280;14279;50.010;8.260;2023-01-30T02:09:33;100937.38;;;2.35;72.55
26657;BME280;14279;50.010;8.260;2023-01-30T02:12:00;100915.16;;;2.17;73.19
26657;BME280;14279;50.010;8.260;2023-01-30T02:14:27;100918.56;;;2.30;72.72
26657;BME280;14279;50.010;8.260;2023-01-30T02:16:53;100912.53;;;2.44;72.03
26657;BME280;14279;50.010;8.260;2023-01-30T02:22:29;100932.31;;;2.15;73.54
26657;BME280;14279;50.010;8.260;2023-01-30T02:25:20;100929.66;;;2.38;72.71
26657;BME280;14279;50.010;8.260;2023-01-30T02:28:18;100924.59;;;2.26;73.71
26657;BME280;14279;50.010;8.260;2023-01-30T02:34:14;100924.59;;;2.26;73.12
26657;BME280;14279;50.010;8.260;2023-01-30T02:36:53;100921.13;;;2.33;73.37
26657;BME280;14279;50.010;8.260;2023-01-30T02:39:42;100918.59;;;2.15;73.88
26657;BME280;14279;50.010;8.260;2023-01-30T02:42:28;100915.97;;;2.30;72.85
26657;BME280;14279;50.010;8.260;2023-01-30T02:45:06;100905.72;;;2.32;73.75
26657;BME280;14279;50.010;8.260;2023-01-30T02:47:38;100898.03;;;2.27;73.19
26657;BME280;14279;50.010;8.260;2023-01-30T02:50:28;100891.13;;;2.35;73.35
26657;BME280;14279;50.010;8.260;2023-01-30T02:52:56;100908.22;;;2.50;72.88
26657;BME280;14279;50.010;8.260;2023-01-30T02:55:25;100902.25;;;2.37;73.49
26657;BME280;14279;50.010;8.260;2023-01-30T02:57:51;100905.50;;;2.81;71.82
26657;BME280;14279;50.010;8.260;2023-01-30T03:00:54;100912.38;;;2.78;72.04
26657;BME280;14279;50.010;8.260;2023-01-30T03:03:40;100906.41;;;2.68;71.83
26657;BME280;14279;50.010;8.260;2023-01-30T03:06:35;100910.78;;;2.53;73.28
26657;BME280;14279;50.010;8.260;2023-01-30T03:11:46;100909.97;;;2.37;73.42
26657;BME280;14279;50.010;8.260;2023-01-30T03:14:43;100932.19;;;2.52;72.96
26657;BME280;14279;50.010;8.260;2023-01-30T03:17:11;100911.69;;;2.35;73.63
26657;BME280;14279;50.010;8.260;2023-01-30T03:19:37;100916.75;;;2.60;73.63
26657;BME280;14279;50.010;8.260;2023-01-30T03:22:02;100913.41;;;2.30;74.56
26657;BME280;14279;50.010;8.260;2023-01-30T03:24:27;100903.09;;;2.47;73.84
26657;BME280;14279;50.010;8.260;2023-01-30T03:27:01;100894.53;;;2.44;74.06
26657;BME280;14279;50.010;8.260;2023-01-30T03:29:26;100880.75;;;2.62;73.65
26657;BME280;14279;50.010;8.260;2023-01-30T03:31:51;100872.31;;;2.32;74.18
26657;BME280;14279;50.010;8.260;2023-01-30T03:34:17;100880.84;;;2.42;74.56
26657;BME280;14279;50.010;8.260;2023-01-30T03:36:42;100887.59;;;2.64;73.77
26657;BME280;14279;50.010;8.260;2023-01-30T03:39:07;100882.41;;;2.69;73.41
26657;BME280;14279;50.010;8.260;2023-01-30T03:41:33;100873.88;;;2.62;73.55
26657;BME280;14279;50.010;8.260;2023-01-30T03:43:58;100865.38;;;2.52;73.66
26657;BME280;14279;50.010;8.260;2023-01-30T03:46:23;100870.59;;;2.32;74.65
26657;BME280;14279;50.010;8.260;2023-01-30T03:48:48;100881.69;;;2.42;74.79
26657;BME280;14279;50.010;8.260;2023-01-30T03:51:14;100869.72;;;2.39;75.39
26657;BME280;14279;50.010;8.260;2023-01-30T03:53:39;100864.56;;;2.41;74.87
26657;BME280;14279;50.010;8.260;2023-01-30T03:56:04;100854.28;;;2.39;74.50
26657;BME280;14279;50.010;8.260;2023-01-30T03:58:30;100852.66;;;2.26;75.38
26657;BME280;14279;50.010;8.260;2023-01-30T04:00:55;100856.03;;;2.30;75.78
26657;BME280;14279;50.010;8.260;2023-01-30T04:03:22;100855.19;;;2.34;75.35
26657;BME280;14279;50.010;8.260;2023-01-30T04:05:47;100842.31;;;2.38;74.77
26657;BME280;14279;50.010;8.260;2023-01-30T04:08:12;100833.78;;;2.32;75.59
26657;BME280;14279;50.010;8.260;2023-01-30T04:10:37;100839.78;;;2.28;76.14
26657;BME280;14279;50.010;8.260;2023-01-30T04:13:03;100837.16;;;2.38;75.62
26657;BME280;14279;50.010;8.260;2023-01-30T04:15:28;100836.28;;;2.43;76.00
26657;BME280;14279;50.010;8.260;2023-01-30T04:17:53;100843.13;;;2.50;75.18
26657;BME280;14279;50.010;8.260;2023-01-30T04:20:18;100832.78;;;2.56;75.38
26657;BME280;14279;50.010;8.260;2023-01-30T04:22:44;100826.81;;;2.54;75.50
26657;BME280;14279;50.010;8.260;2023-01-30T04:25:10;100814.91;;;2.34;76.21
26657;BME280;14279;50.010;8.260;2023-01-30T04:27:35;100817.50;;;2.36;76.11
26657;BME280;14279;50.010;8.260;2023-01-30T04:30:00;100796.81;;;2.53;75.91
26657;BME280;14279;50.010;8.260;2023-01-30T04:32:25;100811.38;;;2.57;75.69
26657;BME280;14279;50.010;8.260;2023-01-30T04:34:51;100801.09;;;2.55;75.69
26657;BME280;14279;50.010;8.260;2023-01-30T04:37:16;100791.66;;;2.61;75.45
26657;BME280;14279;50.010;8.260;2023-01-30T04:39:41;100797.69;;;2.50;76.11
26657;BME280;14279;50.010;8.260;2023-01-30T04:42:07;100778.91;;;2.42;76.17
26657;BME280;14279;50.010;8.260;2023-01-30T04:44:32;100773.69;;;2.53;75.93
26657;BME280;14279;50.010;8.260;2023-01-30T04:46:57;100768.53;;;2.53;76.11
26657;BME280;14279;50.010;8.260;2023-01-30T04:49:23;100777.00;;;2.72;75.71
26657;BME280;14279;50.010;8.260;2023-01-30T04:51:48;100780.53;;;2.54;75.92
26657;BME280;14279;50.010;8.260;2023-01-30T04:54:13;100767.72;;;2.49;76.29
26657;BME280;14279;50.010;8.260;2023-01-30T04:56:38;100775.34;;;2.65;75.60
26657;BME280;14279;50.010;8.260;2023-01-30T04:59:04;100762.28;;;2.91;74.70
26657;BME280;14279;50.010;8.260;2023-01-30T05:01:32;100756.28;;;2.92;74.93
26657;BME280;14279;50.010;8.260;2023-01-30T05:03:58;100762.22;;;2.99;74.54
26657;BME280;14279;50.010;8.260;2023-01-30T05:06:23;100758.00;;;2.92;74.67
26657;BME280;14279;50.010;8.260;2023-01-30T05:08:53;100745.88;;;3.05;74.15
26657;BME280;14279;50.010;8.260;2023-01-30T05:11:20;100750.38;;;2.79;75.22
26657;BME280;14279;50.010;8.260;2023-01-30T05:13:45;100742.72;;;2.73;74.78
26657;BME280;14279;50.010;8.260;2023-01-30T05:16:12;100743.31;;;3.05;74.17
26657;BME280;14279;50.010;8.260;2023-01-30T05:18:37;100747.84;;;2.76;74.93
26657;BME280;14279;50.010;8.260;2023-01-30T05:21:08;100739.19;;;2.85;74.73
26657;BME280;14279;50.010;8.260;2023-01-30T05:23:34;100746.03;;;2.89;74.40
26657;BME280;14279;50.010;8.260;2023-01-30T05:25:59;100735.53;;;3.14;73.65
26657;BME280;14279;50.010;8.260;2023-01-30T05:28:25;100738.25;;;2.95;74.40
26657;BME280;14279;50.010;8.260;2023-01-30T05:30:50;100736.34;;;3.19;73.69
26657;BME280;14279;50.010;8.260;2023-01-30T05:52:52;100676.31;;;3.17;73.71
26657;BME280;14279;50.010;8.260;2023-01-30T05:55:58;100689.38;;;2.97;74.14
26657;BME280;14279;50.010;8.260;2023-01-30T05:58:27;100689.13;;;3.22;73.87
26657;BME280;14279;50.010;8.260;2023-01-30T06:00:53;100696.19;;;3.01;74.51
26657;BME280;14279;50.010;8.260;2023-01-30T06:03:18;100693.88;;;2.75;75.28
26657;BME280;14279;50.010;8.260;2023-01-30T06:05:44;100692.09;;;2.81;75.08
26657;BME280;14279;50.010;8.260;2023-01-30T06:08:09;100701.47;;;2.89;75.04
26657;BME280;14279;50.010;8.260;2023-01-30T06:10:35;100703.09;;;2.97;75.36
26657;BME280;14279;50.010;8.260;2023-01-30T06:13:01;100698.91;;;2.84;75.67
26657;BME280;14279;50.010;8.260;2023-01-30T06:15:26;100689.41;;;2.91;75.33
26657;BME280;14279;50.010;8.260;2023-01-30T06:17:51;100676.47;;;3.03;74.72
26657;BME280;14279;50.010;8.260;2023-01-30T06:20:17;100680.63;;;3.15;74.54
26657;BME280;14279;50.010;8.260;2023-01-30T06:22:42;100685.88;;;3.03;75.38
26657;BME280;14279;50.010;8.260;2023-01-30T06:25:07;100665.25;;;3.09;75.44
26657;BME280;14279;50.010;8.260;2023-01-30T06:27:33;100672.22;;;3.00;75.57
26657;BME280;14279;50.010;8.260;2023-01-30T06:29:59;100676.47;;;3.03;75.19
26657;BME280;14279;50.010;8.260;2023-01-30T06:32:24;100683.28;;;3.06;75.94
26657;BME280;14279;50.010;8.260;2023-01-30T06:34:49;100684.19;;;3.03;75.43
26657;BME280;14279;50.010;8.260;2023-01-30T06:37:14;100693.75;;;2.87;76.61
26657;BME280;14279;50.010;8.260;2023-01-30T06:39:39;100691.94;;;2.98;76.53
26657;BME280;14279;50.010;8.260;2023-01-30T06:42:05;100691.81;;;3.12;75.58
26657;BME280;14279;50.010;8.260;2023-01-30T06:44:31;100689.28;;;3.05;76.16
26657;BME280;14279;50.010;8.260;2023-01-30T06:46:56;100694.34;;;3.15;75.49
26657;BME280;14279;50.010;8.260;2023-01-30T06:49:21;100695.19;;;3.19;75.83
26657;BME280;14279;50.010;8.260;2023-01-30T06:51:46;100691.03;;;3.04;75.96
26657;BME280;14279;50.010;8.260;2023-01-30T06:54:12;100689.28;;;3.08;75.88
26657;BME280;14279;50.010;8.260;2023-01-30T06:56:37;100706.41;;;3.09;76.30
26657;BME280;14279;50.010;8.260;2023-01-30T06:59:02;100708.88;;;3.20;75.76
26657;BME280;14279;50.010;8.260;2023-01-30T07:01:27;100707.84;;;3.38;75.29
26657;BME280;14279;50.010;8.260;2023-01-30T07:03:53;100712.41;;;3.12;75.90
26657;BME280;14279;50.010;8.260;2023-01-30T07:06:18;100716.78;;;3.01;76.93
26657;BME280;14279;50.010;8.260;2023-01-30T07:08:44;100722.00;;;2.92;77.38
26657;BME280;14279;50.010;8.260;2023-01-30T07:11:09;100715.00;;;3.05;77.04
26657;BME280;14279;50.010;8.260;2023-01-30T07:13:34;100716.66;;;3.15;76.66
26657;BME280;14279;50.010;8.260;2023-01-30T07:16:00;100721.84;;;3.09;77.15
26657;BME280;14279;50.010;8.260;2023-01-30T07:18:25;100723.50;;;3.14;77.06
26657;BME280;14279;50.010;8.260;2023-01-30T07:20:50;100743.25;;;3.11;77.58
26657;BME280;14279;50.010;8.260;2023-01-30T07:23:15;100728.69;;;3.11;76.88
26657;BME280;14279;50.010;8.260;2023-01-30T07:25:42;100708.91;;;3.18;76.76
26657;BME280;14279;50.010;8.260;2023-01-30T07:28:08;100690.03;;;3.18;77.33
26657;BME280;14279;50.010;8.260;2023-01-30T07:30:34;100708.06;;;3.14;76.98
26657;BME280;14279;50.010;8.260;2023-01-30T07:33:01;100711.59;;;3.03;78.34
26657;BME280;14279;50.010;8.260;2023-01-30T07:35:29;100714.84;;;3.22;78.10
26657;BME280;14279;50.010;8.260;2023-01-30T07:37:55;100709.91;;;3.03;79.25
26657;BME280;14279;50.010;8.260;2023-01-30T07:40:21;100713.28;;;3.08;79.21
26657;BME280;14279;50.010;8.260;2023-01-30T07:42:56;100708.25;;;2.96;79.89
26657;BME280;14279;50.010;8.260;2023-01-30T07:45:22;100716.72;;;3.07;79.50
26657;BME280;14279;50.010;8.260;2023-01-30T07:47:50;100712.53;;;2.97;79.33
26657;BME280;14279;50.010;8.260;2023-01-30T07:50:15;100707.41;;;2.95;79.62
26657;BME280;14279;50.010;8.260;2023-01-30T07:52:41;100708.91;;;3.18;79.83
26657;BME280;14279;50.010;8.260;2023-01-30T07:55:06;100714.13;;;3.09;79.98
26657;BME280;14279;50.010;8.260;2023-01-30T07:57:32;100719.13;;;3.26;79.42
26657;BME280;14279;50.010;8.260;2023-01-30T07:59:57;100704.44;;;3.36;79.18
26657;BME280;14279;50.010;8.260;2023-01-30T08:02:22;100705.31;;;3.31;78.93
26657;BME280;14279;50.010;8.260;2023-01-30T08:04:47;100719.19;;;3.16;79.87
26657;BME280;14279;50.010;8.260;2023-01-30T08:07:12;100714.78;;;3.31;79.38
26657;BME280;14279;50.010;8.260;2023-01-30T08:09:38;100700.22;;;3.28;79.60
26657;BME280;14279;50.010;8.260;2023-01-30T08:12:03;100701.75;;;3.45;79.82
26657;BME280;14279;50.010;8.260;2023-01-30T08:14:28;100697.56;;;3.36;80.16
26657;BME280;14279;50.010;8.260;2023-01-30T08:16:55;100689.78;;;3.41;79.87
26657;BME280;14279;50.010;8.260;2023-01-30T08:19:21;100704.13;;;3.62;79.05
26657;BME280;14279;50.010;8.260;2023-01-30T08:21:46;100700.69;;;3.65;78.43
26657;BME280;14279;50.010;8.260;2023-01-30T08:24:11;100708.50;;;3.55;78.96
26657;BME280;14279;50.010;8.260;2023-01-30T08:26:36;100704.22;;;3.54;86.96
26657;BME280;14279;50.010;8.260;2023-01-30T08:29:02;100686.19;;;3.54;79.89
26657;BME280;14279;50.010;8.260;2023-01-30T08:31:27;100701.53;;;3.64;79.27
26657;BME280;14279;50.010;8.260;2023-01-30T08:33:53;100674.16;;;3.56;79.15
26657;BME280;14279;50.010;8.260;2023-01-30T08:36:18;100712.06;;;3.45;79.41
26657;BME280;14279;50.010;8.260;2023-01-30T08:38:43;100701.38;;;3.78;78.67
26657;BME280;14279;50.010;8.260;2023-01-30T08:41:09;100697.31;;;3.61;78.59
26657;BME280;14279;50.010;8.260;2023-01-30T08:43:34;100699.78;;;3.69;78.69
26657;BME280;14279;50.010;8.260;2023-01-30T08:46:00;100711.78;;;3.70;79.24
26657;BME280;14279;50.010;8.260;2023-01-30T08:48:26;100697.94;;;3.79;78.79
26657;BME280;14279;50.010;8.260;2023-01-30T08:50:52;100685.91;;;3.79;78.50
26657;BME280;14279;50.010;8.260;2023-01-30T08:53:17;100673.81;;;3.84;78.63
26657;BME280;14279;50.010;8.260;2023-01-30T08:55:43;100674.53;;;3.94;79.11
26657;BME280;14279;50.010;8.260;2023-01-30T08:58:09;100672.94;;;3.85;78.93
26657;BME280;14279;50.010;8.260;2023-01-30T09:00:34;100692.16;;;3.59;79.13
26657;BME280;14279;50.010;8.260;2023-01-30T09:03:00;100682.47;;;3.77;79.63
26657;BME280;14279;50.010;8.260;2023-01-30T09:05:26;100671.38;;;3.73;78.89
26657;BME280;14279;50.010;8.260;2023-01-30T09:07:51;100675.56;;;3.84;78.93
26657;BME280;14279;50.010;8.260;2023-01-30T09:10:16;100652.38;;;3.84;78.58
26657;BME280;14279;50.010;8.260;2023-01-30T09:12:42;100661.88;;;3.79;78.25
26657;BME280;14279;50.010;8.260;2023-01-30T09:15:08;100637.72;;;3.87;78.02
26657;BME280;14279;50.010;8.260;2023-01-30T09:17:33;100669.38;;;3.96;77.44
26657;BME280;14279;50.010;8.260;2023-01-30T09:20:01;100671.09;;;3.97;77.60
26657;BME280;14279;50.010;8.260;2023-01-30T09:22:26;100661.34;;;4.17;76.95
26657;BME280;14279;50.010;8.260;2023-01-30T09:24:52;100666.00;;;4.48;75.74
26657;BME280;14279;50.010;8.260;2023-01-30T09:27:17;100660.19;;;4.35;75.49
26657;BME280;14279;50.010;8.260;2023-01-30T09:29:42;100681.00;;;4.23;76.29
26657;BME280;14279;50.010;8.260;2023-01-30T09:32:09;100672.31;;;4.30;76.75
26657;BME280;14279;50.010;8.260;2023-01-30T09:34:35;100664.47;;;4.38;76.03
26657;BME280;14279;50.010;8.260;2023-01-30T09:37:00;100654.56;;;4.10;76.96
26657;BME280;14279;50.010;8.260;2023-01-30T09:39:27;100660.00;;;3.91;77.80
26657;BME280;14279;50.010;8.260;2023-01-30T09:47:17;100670.56;;;4.32;75.89
26657;BME280;14279;50.010;8.260;2023-01-30T09:55:41;100679.81;;;4.46;75.59
26657;BME280;14279;50.010;8.260;2023-01-30T09:58:15;100660.81;;;4.53;75.29
26657;BME280;14279;50.010;8.260;2023-01-30T10:00:41;100659.00;;;4.57;74.92
26657;BME280;14279;50.010;8.260;2023-01-30T10:03:12;100687.47;;;4.52;76.42
26657;BME280;14279;50.010;8.260;2023-01-30T10:17:02;100658.25;;;4.50;77.25
26657;BME280;14279;50.010;8.260;2023-01-30T10:20:02;100640.19;;;4.51;77.43
26657;BME280;14279;50.010;8.260;2023-01-30T10:28:02;100650.13;;;4.73;76.47
26657;BME280;14279;50.010;8.260;2023-01-30T10:30:28;100627.19;;;5.06;75.63
26657;BME280;14279;50.010;8.260;2023-01-30T10:33:03;100636.59;;;5.09;75.68
26657;BME280;14279;50.010;8.260;2023-01-30T10:35:33;100647.84;;;5.06;75.38
26657;BME280;14279;50.010;8.260;2023-01-30T10:38:11;100627.09;;;5.13;75.20
26657;BME280;14279;50.010;8.260;2023-01-30T10:40:48;100625.50;;;5.48;74.51
26657;BME280;14279;50.010;8.260;2023-01-30T10:43:31;100621.94;;;5.55;74.23
26657;BME280;14279;50.010;8.260;2023-01-30T10:48:36;100625.06;;;5.69;73.40
26657;BME280;14279;50.010;8.260;2023-01-30T10:51:28;100635.72;;;5.54;75.17
26657;BME280;14279;50.010;8.260;2023-01-30T10:54:12;100632.22;;;5.56;75.46
26657;BME280;14279;50.010;8.260;2023-01-30T10:56:45;100622.03;;;5.50;76.37
26657;BME280;14279;50.010;8.260;2023-01-30T10:59:44;100629.97;;;5.82;76.57
26657;BME280;14279;50.010;8.260;2023-01-30T11:02:30;100633.19;;;5.92;75.93
26657;BME280;14279;50.010;8.260;2023-01-30T11:05:03;100657.50;;;5.83;76.10
26657;BME280;14279;50.010;8.260;2023-01-30T11:07:34;100629.44;;;6.07;74.80
26657;BME280;14279;50.010;8.260;2023-01-30T11:10:00;100618.97;;;6.13;73.92
26657;BME280;14279;50.010;8.260;2023-01-30T11:12:25;100621.38;;;6.55;73.25
26657;BME280;14279;50.010;8.260;2023-01-30T11:14:57;100628.34;;;6.52;73.33
26657;BME280;14279;50.010;8.260;2023-01-30T11:17:35;100602.78;;;6.74;72.35
26657;BME280;14279;50.010;8.260;2023-01-30T11:20:04;100596.00;;;6.37;72.56
26657;BME280;14279;50.010;8.260;2023-01-30T11:22:33;100633.91;;;6.38;72.59
26657;BME280;14279;50.010;8.260;2023-01-30T11:25:04;100616.00;;;6.63;72.06
26657;BME280;14279;50.010;8.260;2023-01-30T11:27:32;100617.31;;;6.80;71.06
26657;BME280;14279;50.010;8.260;2023-01-30T11:30:04;100635.28;;;6.51;71.64
26657;BME280;14279;50.010;8.260;2023-01-30T11:32:30;100611.94;;;6.54;71.82
26657;BME280;14279;50.010;8.260;2023-01-30T11:37:34;100631.19;;;6.77;71.38
26657;BME280;14279;50.010;8.260;2023-01-30T11:40:20;100632.91;;;6.76;71.43
26657;BME280;14279;50.010;8.260;2023-01-30T11:42:51;100641.75;;;6.68;70.71
26657;BME280;14279;50.010;8.260;2023-01-30T11:45:18;100627.72;;;6.78;70.95
26657;BME280;14279;50.010;8.260;2023-01-30T11:47:57;100639.97;;;6.71;71.33
26657;BME280;14279;50.010;8.260;2023-01-30T11:50:29;100662.78;;;6.55;71.26
26657;BME280;14279;50.010;8.260;2023-01-30T11:53:00;100647.75;;;6.70;71.56
26657;BME280;14279;50.010;8.260;2023-01-30T11:55:26;100641.56;;;6.75;71.27
26657;BME280;14279;50.010;8.260;2023-01-30T11:57:55;100655.50;;;6.70;71.09
26657;BME280;14279;50.010;8.260;2023-01-30T12:00:26;100651.69;;;6.50;71.84
26657;BME280;14279;50.010;8.260;2023-01-30T12:03:01;100659.66;;;6.77;70.96
26657;BME280;14279;50.010;8.260;2023-01-30T12:05:33;100665.00;;;7.04;70.44
26657;BME280;14279;50.010;8.260;2023-01-30T12:08:13;100661.22;;;6.83;70.63
26657;BME280;14279;50.010;8.260;2023-01-30T12:10:54;100672.44;;;6.82;71.33
26657;BME280;14279;50.010;8.260;2023-01-30T12:13:26;100632.63;;;6.54;71.03
26657;BME280;14279;50.010;8.260;2023-01-30T12:16:05;100629.13;;;6.90;70.77
26657;BME280;14279;50.010;8.260;2023-01-30T12:18:49;100627.09;;;6.68;70.97
26657;BME280;14279;50.010;8.260;2023-01-30T12:21:45;100599.75;;;6.91;70.90
26657;BME280;14279;50.010;8.260;2023-01-30T12:24:47;100617.22;;;6.83;71.70
26657;BME280;14279;50.010;8.260;2023-01-30T12:27:45;100609.72;;;6.73;71.43
26657;BME280;14279;50.010;8.260;2023-01-30T12:30:27;100617.59;;;6.69;71.36
26657;BME280;14279;50.010;8.260;2023-01-30T12:32:58;100602.50;;;6.52;71.75
26657;BME280;14279;50.010;8.260;2023-01-30T12:35:30;100603.56;;;6.77;71.29
26657;BME280;14279;50.010;8.260;2023-01-30T12:38:13;100605.63;;;6.65;70.33
26657;BME280;14279;50.010;8.260;2023-01-30T12:44:02;100610.13;;;6.89;70.29
26657;BME280;14279;50.010;8.260;2023-01-30T12:46:22;100580.16;;;6.49;70.69
26657;BME280;14279;50.010;8.260;2023-01-30T12:54:28;100613.47;;;6.95;68.91
26657;BME280;14279;50.010;8.260;2023-01-30T12:57:17;100610.16;;;7.21;67.63
26657;BME280;14279;50.010;8.260;2023-01-30T12:59:58;100622.13;;;7.25;68.25
26657;BME280;14279;50.010;8.260;2023-01-30T13:05:30;100615.75;;;7.37;67.62
26657;BME280;14279;50.010;8.260;2023-01-30T13:11:19;100605.09;;;6.85;68.60
26657;BME280;14279;50.010;8.260;2023-01-30T13:13:52;100627.50;;;6.86;68.61
26657;BME280;14279;50.010;8.260;2023-01-30T13:16:39;100617.88;;;6.91;69.12
26657;BME280;14279;50.010;8.260;2023-01-30T13:19:19;100619.22;;;7.04;68.96
26657;BME280;14279;50.010;8.260;2023-01-30T13:22:18;100598.88;;;6.92;69.43
26657;BME280;14279;50.010;8.260;2023-01-30T13:24:59;100618.03;;;7.16;68.99
26657;BME280;14279;50.010;8.260;2023-01-30T13:27:29;100621.53;;;7.15;69.53
26657;BME280;14279;50.010;8.260;2023-01-30T13:29:58;100625.72;;;7.19;69.15
26657;BME280;14279;50.010;8.260;2023-01-30T13:32:47;100624.81;;;7.22;69.71
26657;BME280;14279;50.010;8.260;2023-01-30T13:35:27;100609.03;;;6.98;69.19
26657;BME280;14279;50.010;8.260;2023-01-30T13:37:54;100624.78;;;6.90;69.82
26657;BME280;14279;50.010;8.260;2023-01-30T13:40:37;100615.28;;;6.91;69.02
26657;BME280;14279;50.010;8.260;2023-01-30T13:45:36;100644.50;;;6.96;69.30
26657;BME280;14279;50.010;8.260;2023-01-30T13:53:47;100655.59;;;7.00;68.99
26657;BME280;14279;50.010;8.260;2023-01-30T13:56:40;100636.03;;;6.89;69.59
26657;BME280;14279;50.010;8.260;2023-01-30T14:07:28;100648.78;;;6.97;70.39
26657;BME280;14279;50.010;8.260;2023-01-30T14:12:41;100669.19;;;6.75;70.44
26657;BME280;14279;50.010;8.260;2023-01-30T14:15:21;100662.91;;;6.85;70.75
26657;BME280;14279;50.010;8.260;2023-01-30T14:20:25;100685.31;;;6.85;70.50
26657;BME280;14279;50.010;8.260;2023-01-30T14:22:55;100712.16;;;6.81;71.73
26657;BME280;14279;50.010;8.260;2023-01-30T14:27:47;100702.19;;;6.65;75.49
26657;BME280;14279;50.010;8.260;2023-01-30T14:32:54;100722.59;;;6.41;79.41
26657;BME280;14279;50.010;8.260;2023-01-30T14:35:24;100715.38;;;6.16;81.48
26657;BME280;14279;50.010;8.260;2023-01-30T14:37:55;100718.13;;;6.09;82.41
26657;BME280;14279;50.010;8.260;2023-01-30T14:40:29;100725.00;;;6.10;83.24
26657;BME280;14279;50.010;8.260;2023-01-30T14:45:52;100737.66;;;5.80;83.62
26657;BME280;14279;50.010;8.260;2023-01-30T14:51:46;100743.59;;;5.83;83.59
26657;BME280;14279;50.010;8.260;2023-01-30T14:56:42;100749.22;;;6.06;82.42
26657;BME280;14279;50.010;8.260;2023-01-30T14:59:22;100760.53;;;6.00;82.13
26657;BME280;14279;50.010;8.260;2023-01-30T15:04:23;100771.72;;;6.41;80.11
26657;BME280;14279;50.010;8.260;2023-01-30T15:06:51;100781.59;;;6.24;80.33
26657;BME280;14279;50.010;8.260;2023-01-30T15:09:18;100778.91;;;6.27;80.56
26657;BME280;14279;50.010;8.260;2023-01-30T15:11:52;100781.34;;;6.35;79.61
26657;BME280;14279;50.010;8.260;2023-01-30T15:14:28;100783.19;;;6.29;78.71
26657;BME280;14279;50.010;8.260;2023-01-30T15:17:23;100785.59;;;6.37;78.48
26657;BME280;14279;50.010;8.260;2023-01-30T15:20:02;100780.88;;;6.15;77.07
26657;BME280;14279;50.010;8.260;2023-01-30T15:22:43;100782.31;;;6.29;77.23